Time;durP1;ratioP1;P1;durP2;ratioP2;P2;SDS_P1;SDS_P2;PMS_P1;PMS_P2;Temp;Humidity;BMP_temperature;BMP_pressure;BME280_temperature;BME280_humidity;BME280_pressure;Samples;Min_cycle;Max_cycle;Signal;HPM_P1;HPM_P2
2022/01/09 00:00:30;;;;;;;5.78;2.05;;;3.70;99.90;;;;;;5034338;28;20022;-72
2022/01/09 00:02:56;;;;;;;2.78;1.60;;;3.70;99.90;;;;;;5018581;28;20026;-72
2022/01/09 00:05:23;;;;;;;4.68;1.83;;;3.70;99.90;;;;;;5046744;28;20056;-72
2022/01/09 00:07:49;;;;;;;6.75;2.70;;;3.60;99.90;;;;;;5039804;28;20036;-72
2022/01/09 00:10:18;;;;;;;4.57;2.53;;;3.60;99.90;;;;;;5045515;28;20028;-74
2022/01/09 00:12:44;;;;;;;7.20;2.88;;;3.70;99.90;;;;;;5041853;28;20056;-71
2022/01/09 00:15:11;;;;;;;5.70;2.92;;;3.70;99.90;;;;;;5043540;28;20026;-72
2022/01/09 00:17:46;;;;;;;4.18;1.70;;;3.60;99.90;;;;;;5042366;28;20481;-72
2022/01/09 00:20:12;;;;;;;2.67;1.63;;;3.70;99.90;;;;;;5038754;28;20065;-72
2022/01/09 00:22:51;;;;;;;4.60;1.70;;;3.70;99.90;;;;;;5036209;28;20021;-71
2022/01/09 00:25:19;;;;;;;5.05;1.90;;;3.60;99.90;;;;;;5037203;28;20095;-72
2022/01/09 00:27:45;;;;;;;5.30;2.40;;;3.60;99.90;;;;;;5036549;28;20028;-70
2022/01/09 00:30:14;;;;;;;5.47;2.55;;;3.60;99.90;;;;;;5037579;28;20056;-70
2022/01/09 00:32:40;;;;;;;5.25;2.47;;;3.70;99.90;;;;;;5037088;28;20029;-73
2022/01/09 00:35:06;;;;;;;3.47;2.00;;;3.70;99.90;;;;;;5036060;28;20025;-73
2022/01/09 00:37:32;;;;;;;4.60;2.25;;;3.70;99.90;;;;;;5043887;28;20037;-70
2022/01/09 00:39:58;;;;;;;5.15;2.28;;;3.70;99.90;;;;;;5027372;28;20092;-70
2022/01/09 00:42:23;;;;;;;2.75;1.42;;;3.80;99.90;;;;;;5046745;28;20056;-72
2022/01/09 00:44:49;;;;;;;3.38;1.55;;;3.70;99.90;;;;;;5046181;28;20048;-70
2022/01/09 00:47:17;;;;;;;3.70;1.73;;;3.70;99.90;;;;;;5046911;28;20021;-71
2022/01/09 00:49:43;;;;;;;6.28;2.60;;;3.80;99.90;;;;;;5046563;28;20033;-70
2022/01/09 00:52:09;;;;;;;3.95;1.70;;;3.90;99.90;;;;;;5028833;28;20035;-71
2022/01/09 00:54:35;;;;;;;3.47;1.95;;;3.80;99.90;;;;;;5046934;28;20021;-71
2022/01/09 00:57:01;;;;;;;7.85;2.25;;;3.80;99.90;;;;;;5046522;28;20044;-72
2022/01/09 00:59:27;;;;;;;3.83;1.60;;;3.80;99.90;;;;;;5046673;28;20103;-73
2022/01/09 01:01:53;;;;;;;3.17;1.40;;;3.90;99.90;;;;;;5046587;28;20029;-70
2022/01/09 01:04:19;;;;;;;3.88;2.03;;;3.90;99.90;;;;;;5044898;28;20048;-71
2022/01/09 01:06:45;;;;;;;6.00;1.90;;;3.90;99.90;;;;;;5046419;28;20047;-73
2022/01/09 01:09:10;;;;;;;5.88;2.10;;;3.90;99.90;;;;;;5046640;28;20025;-72
2022/01/09 01:11:36;;;;;;;7.72;2.20;;;3.80;99.90;;;;;;5028136;28;20382;-71
2022/01/09 01:14:02;;;;;;;3.17;1.88;;;3.80;99.90;;;;;;5046481;28;20385;-71
2022/01/09 01:16:27;;;;;;;4.38;2.17;;;3.80;99.90;;;;;;5046447;28;20529;-71
2022/01/09 01:18:55;;;;;;;6.20;2.42;;;3.80;99.90;;;;;;5045506;28;20045;-71
2022/01/09 01:21:23;;;;;;;8.32;2.97;;;3.80;99.90;;;;;;5046120;28;20026;-72
2022/01/09 01:23:49;;;;;;;4.47;1.80;;;3.80;99.90;;;;;;5028325;28;20026;-73
2022/01/09 01:26:14;;;;;;;5.00;2.33;;;3.80;99.90;;;;;;5045705;28;20386;-70
2022/01/09 01:28:40;;;;;;;3.90;1.90;;;3.80;99.90;;;;;;5046129;28;20029;-70
2022/01/09 01:31:06;;;;;;;12.43;2.40;;;3.90;99.90;;;;;;5045979;28;20055;-71
2022/01/09 01:33:32;;;;;;;14.40;2.92;;;3.80;99.90;;;;;;5045767;28;20391;-72
2022/01/09 01:35:58;;;;;;;5.30;2.78;;;3.80;99.90;;;;;;5046039;28;20085;-71
2022/01/09 01:38:23;;;;;;;6.22;2.80;;;3.90;99.90;;;;;;5045711;28;20018;-71
2022/01/09 01:40:49;;;;;;;5.55;2.72;;;3.80;99.90;;;;;;5045546;28;20036;-71
2022/01/09 01:43:14;;;;;;;4.53;2.50;;;3.90;99.90;;;;;;5045806;28;20030;-72
2022/01/09 01:45:40;;;;;;;2.80;1.20;;;3.80;99.90;;;;;;5045580;28;20097;-72
2022/01/09 01:48:06;;;;;;;4.57;2.08;;;3.90;99.90;;;;;;5045440;28;20029;-71
2022/01/09 01:50:37;;;;;;;4.70;2.63;;;3.90;99.90;;;;;;5045155;28;20021;-71
2022/01/09 01:53:07;;;;;;;4.10;2.47;;;3.90;99.90;;;;;;5045524;28;20029;-71
2022/01/09 01:55:36;;;;;;;4.80;2.03;;;3.90;99.90;;;;;;5045313;28;20022;-72
2022/01/09 01:58:06;;;;;;;5.38;2.28;;;3.90;99.90;;;;;;5045548;28;20033;-70
2022/01/09 02:00:33;;;;;;;2.85;1.42;;;3.90;99.90;;;;;;5045546;28;20026;-72
2022/01/09 02:03:10;;;;;;;3.58;2.05;;;3.90;99.90;;;;;;5045624;28;20049;-72
2022/01/09 02:05:36;;;;;;;4.20;1.98;;;3.90;99.90;;;;;;5045396;28;20037;-72
2022/01/09 02:08:04;;;;;;;5.45;2.03;;;3.90;99.90;;;;;;5045014;28;20040;-73
2022/01/09 02:10:30;;;;;;;8.05;2.40;;;3.90;99.90;;;;;;5045590;28;20052;-72
2022/01/09 02:12:57;;;;;;;2.45;1.33;;;3.80;99.90;;;;;;5045346;28;20029;-71
2022/01/09 02:15:39;;;;;;;4.25;2.30;;;3.80;99.90;;;;;;5044798;28;20098;-72
2022/01/09 02:18:08;;;;;;;3.90;2.05;;;3.80;99.90;;;;;;5045273;28;20026;-71
2022/01/09 02:20:34;;;;;;;3.67;2.10;;;3.80;99.90;;;;;;5043840;28;20057;-72
2022/01/09 02:23:01;;;;;;;4.13;2.20;;;3.80;99.90;;;;;;5045261;28;20059;-72
2022/01/09 02:25:27;;;;;;;5.70;2.75;;;3.80;99.90;;;;;;5045191;28;20029;-72
2022/01/09 02:27:54;;;;;;;4.13;2.08;;;3.80;99.90;;;;;;5044659;28;20032;-73
2022/01/09 02:30:20;;;;;;;10.05;1.80;;;3.70;99.90;;;;;;5044856;28;20022;-72
2022/01/09 02:32:46;;;;;;;4.25;2.22;;;3.70;99.90;;;;;;5027338;28;20029;-72
2022/01/09 02:35:11;;;;;;;3.17;1.80;;;3.70;99.90;;;;;;5044459;28;20137;-73
2022/01/09 02:37:37;;;;;;;2.63;1.70;;;3.70;99.90;;;;;;5044976;28;20029;-73
2022/01/09 02:40:05;;;;;;;3.63;1.90;;;3.70;99.90;;;;;;5045025;28;20083;-72
2022/01/09 02:42:31;;;;;;;4.10;1.85;;;3.70;99.90;;;;;;5044712;28;20029;-72
2022/01/09 02:44:58;;;;;;;8.55;1.95;;;3.70;99.90;;;;;;5044908;28;20048;-72
2022/01/09 02:47:33;;;;;;;4.07;1.88;;;3.60;99.90;;;;;;5044822;28;20025;-72
2022/01/09 02:50:10;;;;;;;2.97;1.80;;;3.70;99.90;;;;;;5026561;28;20121;-73
2022/01/09 02:52:36;;;;;;;5.43;2.13;;;3.60;99.90;;;;;;5044880;28;20025;-74
2022/01/09 02:55:12;;;;;;;3.72;1.90;;;3.60;99.90;;;;;;5044734;28;20035;-72
2022/01/09 02:57:43;;;;;;;2.47;1.17;;;3.60;99.90;;;;;;5043570;28;20044;-75
2022/01/09 03:00:12;;;;;;;4.47;2.13;;;3.60;99.90;;;;;;5044811;28;20025;-72
2022/01/09 03:02:38;;;;;;;3.97;2.17;;;3.60;99.90;;;;;;5044450;28;20038;-72
2022/01/09 03:05:04;;;;;;;1.88;1.10;;;3.60;99.90;;;;;;5043231;28;20053;-73
2022/01/09 03:07:30;;;;;;;4.55;1.52;;;3.60;99.90;;;;;;5027053;28;20061;-73
2022/01/09 03:09:55;;;;;;;3.15;1.90;;;3.60;99.90;;;;;;5026718;28;20025;-74
2022/01/09 03:12:22;;;;;;;4.18;2.10;;;3.60;99.90;;;;;;5026815;28;20057;-74
2022/01/09 03:14:48;;;;;;;7.38;1.77;;;3.60;99.90;;;;;;5044595;28;20033;-74
2022/01/09 03:17:13;;;;;;;4.47;2.05;;;3.50;99.90;;;;;;5043936;28;20041;-74
2022/01/09 03:19:39;;;;;;;3.42;2.03;;;3.60;99.90;;;;;;5044107;28;20057;-76
2022/01/09 03:22:05;;;;;;;9.60;2.88;;;3.60;99.90;;;;;;5044578;28;20052;-75
2022/01/09 03:24:31;;;;;;;4.53;1.92;;;3.60;99.90;;;;;;5044148;28;20033;-74
2022/01/09 03:26:56;;;;;;;5.30;1.73;;;3.60;99.90;;;;;;5044797;28;20061;-75
2022/01/09 03:29:22;;;;;;;4.57;2.33;;;3.50;99.90;;;;;;5029909;28;20508;-76
2022/01/09 03:31:48;;;;;;;3.85;2.42;;;3.50;99.90;;;;;;5030222;28;20058;-76
2022/01/09 03:34:14;;;;;;;5.00;1.98;;;3.50;99.90;;;;;;5030446;28;20036;-75
2022/01/09 03:36:39;;;;;;;3.90;1.38;;;3.60;99.90;;;;;;5048285;28;20025;-74
2022/01/09 03:39:05;;;;;;;3.47;1.33;;;3.50;99.90;;;;;;5047936;28;20053;-76
2022/01/09 03:41:31;;;;;;;5.90;2.47;;;3.50;99.90;;;;;;5048214;28;20032;-75
2022/01/09 03:43:57;;;;;;;2.40;1.15;;;3.40;99.90;;;;;;5048387;28;20029;-75
2022/01/09 03:46:22;;;;;;;4.15;2.40;;;3.40;99.90;;;;;;5047237;28;20077;-72
2022/01/09 03:48:48;;;;;;;3.95;1.83;;;3.40;99.90;;;;;;5048205;28;20029;-73
2022/01/09 03:51:13;;;;;;;3.38;1.88;;;3.40;99.90;;;;;;5047821;28;20056;-74
2022/01/09 03:53:39;;;;;;;5.80;2.20;;;3.40;99.90;;;;;;5047575;28;20034;-74
2022/01/09 03:56:06;;;;;;;5.43;2.58;;;3.40;99.90;;;;;;5047984;28;20053;-74
2022/01/09 03:58:31;;;;;;;3.95;2.22;;;3.40;99.90;;;;;;5047859;28;20071;-74
2022/01/09 04:00:57;;;;;;;4.10;2.38;;;3.40;99.90;;;;;;5029829;28;20068;-73
2022/01/09 04:03:23;;;;;;;3.72;2.00;;;3.40;99.90;;;;;;5029923;28;20030;-74
2022/01/09 04:05:48;;;;;;;3.95;2.13;;;3.20;99.90;;;;;;5047184;28;20029;-74
2022/01/09 04:08:14;;;;;;;3.45;2.22;;;3.30;99.90;;;;;;5029667;28;20026;-74
2022/01/09 04:10:42;;;;;;;7.18;2.40;;;3.30;99.90;;;;;;5047671;28;20085;-74
2022/01/09 04:13:10;;;;;;;3.67;1.88;;;3.30;99.90;;;;;;5047213;28;20052;-73
2022/01/09 04:15:38;;;;;;;3.05;1.73;;;3.30;99.90;;;;;;5029706;28;20022;-73
2022/01/09 04:18:04;;;;;;;4.43;1.88;;;3.40;99.90;;;;;;5047172;28;20025;-74
2022/01/09 04:20:32;;;;;;;4.15;2.28;;;3.30;99.90;;;;;;5046818;28;20080;-74
2022/01/09 04:22:59;;;;;;;5.30;1.92;;;3.30;99.90;;;;;;5029242;28;20032;-73
2022/01/09 04:25:25;;;;;;;6.88;2.05;;;3.30;99.90;;;;;;5029466;28;20042;-72
2022/01/09 04:27:51;;;;;;;4.95;2.03;;;3.30;99.90;;;;;;5046908;28;20033;-74
2022/01/09 04:30:18;;;;;;;5.97;2.28;;;3.30;99.90;;;;;;5029405;28;20048;-73
2022/01/09 04:32:44;;;;;;;5.70;2.25;;;3.30;99.90;;;;;;5047121;28;20543;-73
2022/01/09 04:35:11;;;;;;;5.03;2.65;;;3.30;99.90;;;;;;5028917;28;20025;-74
2022/01/09 04:37:37;;;;;;;7.35;3.10;;;3.30;99.90;;;;;;5047062;28;20031;-74
2022/01/09 04:40:08;;;;;;;7.07;2.80;;;3.30;99.90;;;;;;5028799;28;20173;-75
2022/01/09 04:42:46;;;;;;;3.03;1.67;;;3.30;99.90;;;;;;5046848;28;20057;-75
2022/01/09 04:45:14;;;;;;;5.78;2.80;;;3.30;99.90;;;;;;5046960;28;20417;-74
2022/01/09 04:47:43;;;;;;;4.38;2.30;;;3.30;99.90;;;;;;5046267;28;20018;-73
2022/01/09 04:50:13;;;;;;;7.57;1.92;;;3.30;99.90;;;;;;5028773;28;20057;-74
2022/01/09 04:52:43;;;;;;;5.50;2.92;;;3.30;99.90;;;;;;5028916;28;20064;-77
2022/01/09 04:55:09;;;;;;;4.85;1.92;;;3.30;99.90;;;;;;5028583;28;20025;-74
2022/01/09 04:57:35;;;;;;;4.60;1.90;;;3.30;99.90;;;;;;5029053;28;20036;-72
2022/01/09 05:00:02;;;;;;;4.97;2.75;;;3.20;99.90;;;;;;5028709;28;20029;-74
2022/01/09 05:02:28;;;;;;;6.85;2.28;;;3.20;99.90;;;;;;5046362;28;20053;-75
2022/01/09 05:04:53;;;;;;;6.50;2.90;;;3.20;99.90;;;;;;5046328;28;20038;-74
2022/01/09 05:07:19;;;;;;;5.03;2.45;;;3.20;99.90;;;;;;5028498;28;20033;-74
2022/01/09 05:09:45;;;;;;;3.63;1.92;;;3.20;99.90;;;;;;5046493;28;20033;-74
2022/01/09 05:12:10;;;;;;;6.70;2.90;;;3.20;99.90;;;;;;5046499;28;20056;-73
2022/01/09 05:14:36;;;;;;;4.93;2.35;;;3.20;99.90;;;;;;5028362;28;20087;-75
2022/01/09 05:17:02;;;;;;;4.30;2.33;;;3.20;99.90;;;;;;5046431;28;20080;-73
2022/01/09 05:19:29;;;;;;;7.95;3.20;;;3.20;99.90;;;;;;5046227;28;20064;-74
2022/01/09 05:21:56;;;;;;;7.35;3.13;;;3.20;99.90;;;;;;5045919;28;20025;-74
2022/01/09 05:24:22;;;;;;;3.67;2.10;;;3.20;99.90;;;;;;5045848;28;20044;-75
2022/01/09 05:26:48;;;;;;;4.90;1.77;;;3.20;99.90;;;;;;5028477;28;20022;-75
2022/01/09 05:29:14;;;;;;;4.60;2.05;;;3.20;99.90;;;;;;5045546;28;20040;-76
2022/01/09 05:31:40;;;;;;;4.93;2.60;;;3.20;99.90;;;;;;5045974;28;20030;-74
2022/01/09 05:34:07;;;;;;;6.97;2.97;;;3.20;99.90;;;;;;5028052;28;20025;-73
2022/01/09 05:36:33;;;;;;;5.47;1.95;;;3.20;99.90;;;;;;5045667;28;20037;-74
2022/01/09 05:38:59;;;;;;;5.35;2.28;;;3.30;99.90;;;;;;5028469;28;20032;-73
2022/01/09 05:41:25;;;;;;;6.45;2.83;;;3.20;99.90;;;;;;5028202;28;20061;-73
2022/01/09 05:43:51;;;;;;;4.43;2.25;;;3.10;99.90;;;;;;5045338;28;20029;-75
2022/01/09 05:46:17;;;;;;;2.72;1.77;;;3.10;99.90;;;;;;5045667;28;20044;-74
2022/01/09 05:48:43;;;;;;;5.88;2.63;;;3.20;99.90;;;;;;5045373;28;20025;-73
2022/01/09 05:51:08;;;;;;;4.80;2.25;;;3.10;99.90;;;;;;5044828;28;20069;-74
2022/01/09 05:53:34;;;;;;;5.03;2.15;;;3.10;99.90;;;;;;5045826;28;20030;-75
2022/01/09 05:55:59;;;;;;;3.88;2.03;;;3.10;99.90;;;;;;5045410;28;20030;-74
2022/01/09 05:58:25;;;;;;;4.88;2.40;;;3.10;99.90;;;;;;5045297;28;20029;-75
2022/01/09 06:00:50;;;;;;;2.33;1.20;;;3.10;99.90;;;;;;5027747;28;20033;-75
2022/01/09 06:03:16;;;;;;;3.05;1.75;;;3.10;99.90;;;;;;5027446;28;20029;-74
2022/01/09 06:05:41;;;;;;;2.30;1.33;;;3.10;99.90;;;;;;5027181;28;20041;-73
2022/01/09 06:08:07;;;;;;;3.88;1.77;;;3.00;99.90;;;;;;5027685;28;20072;-74
2022/01/09 06:10:33;;;;;;;3.75;1.70;;;2.90;99.90;;;;;;5045154;28;20077;-73
2022/01/09 06:12:59;;;;;;;3.33;1.80;;;2.90;99.90;;;;;;5045314;28;20026;-75
2022/01/09 06:15:24;;;;;;;2.42;1.38;;;2.90;99.90;;;;;;5045313;28;20022;-73
2022/01/09 06:17:50;;;;;;;2.92;1.60;;;2.80;99.90;;;;;;5043430;28;20043;-74
2022/01/09 06:20:16;;;;;;;3.80;1.90;;;2.80;99.90;;;;;;5045014;28;20045;-74
2022/01/09 06:22:43;;;;;;;4.97;1.70;;;2.80;99.90;;;;;;5045011;28;20040;-78
2022/01/09 06:25:10;;;;;;;3.20;1.40;;;2.80;99.90;;;;;;5044679;28;20053;-75
2022/01/09 06:27:36;;;;;;;3.20;1.70;;;2.80;99.90;;;;;;5044949;28;20029;-74
2022/01/09 06:30:04;;;;;;;4.28;2.10;;;2.70;99.90;;;;;;5045319;28;20469;-75
2022/01/09 06:32:31;;;;;;;3.45;1.98;;;2.70;99.90;;;;;;5044973;28;20022;-75
2022/01/09 06:34:57;;;;;;;5.82;2.60;;;2.70;99.90;;;;;;5045062;28;20029;-76
2022/01/09 06:37:22;;;;;;;3.85;2.28;;;2.70;99.90;;;;;;5027038;28;20025;-75
2022/01/09 06:39:48;;;;;;;3.67;1.55;;;2.70;99.90;;;;;;5042407;28;20029;-76
2022/01/09 06:42:14;;;;;;;4.80;1.95;;;2.70;99.90;;;;;;5044706;28;20025;-81
2022/01/09 06:44:40;;;;;;;3.97;2.30;;;2.60;99.90;;;;;;5044543;28;20117;-74
2022/01/09 06:47:07;;;;;;;6.28;2.28;;;2.50;99.90;;;;;;5044937;28;20034;-73
2022/01/09 06:49:34;;;;;;;3.45;1.63;;;2.60;99.90;;;;;;5044870;28;20026;-75
2022/01/09 06:51:59;;;;;;;8.23;1.80;;;2.50;99.90;;;;;;5026965;28;20075;-74
2022/01/09 06:54:25;;;;;;;4.65;2.15;;;2.50;99.90;;;;;;5044730;28;20479;-73
2022/01/09 06:56:51;;;;;;;4.20;1.60;;;2.50;99.90;;;;;;5027113;28;20416;-74
2022/01/09 06:59:16;;;;;;;5.10;2.05;;;2.40;99.90;;;;;;5044150;28;20512;-72
2022/01/09 07:01:42;;;;;;;5.78;2.22;;;2.40;99.90;;;;;;5044599;28;20030;-72
2022/01/09 07:04:07;;;;;;;6.10;2.30;;;2.40;99.90;;;;;;5047718;28;20474;-76
2022/01/09 07:06:35;;;;;;;4.05;1.90;;;2.40;99.90;;;;;;5030595;28;20060;-75
2022/01/09 07:09:01;;;;;;;4.15;2.08;;;2.30;99.90;;;;;;5031016;28;20026;-76
2022/01/09 07:11:26;;;;;;;4.47;1.90;;;2.30;99.90;;;;;;5031260;28;20029;-74
2022/01/09 07:13:52;;;;;;;5.95;1.58;;;2.30;99.90;;;;;;5048227;28;20033;-75
2022/01/09 07:16:18;;;;;;;4.70;1.73;;;2.30;99.90;;;;;;5030773;28;20079;-76
2022/01/09 07:18:43;;;;;;;4.45;2.20;;;2.30;99.90;;;;;;5048137;28;20033;-75
2022/01/09 07:21:09;;;;;;;4.80;1.77;;;2.40;99.90;;;;;;5048140;28;20083;-75
2022/01/09 07:23:35;;;;;;;4.18;1.75;;;2.40;99.90;;;;;;5030687;28;20088;-76
2022/01/09 07:26:00;;;;;;;5.78;2.63;;;2.40;99.90;;;;;;5048626;28;20042;-76
2022/01/09 07:28:26;;;;;;;6.30;2.42;;;2.40;99.90;;;;;;5048045;28;20029;-76
2022/01/09 07:30:52;;;;;;;6.70;2.92;;;2.40;99.90;;;;;;5048333;28;20025;-75
2022/01/09 07:33:17;;;;;;;6.47;2.80;;;2.50;99.90;;;;;;5048253;28;20387;-77
2022/01/09 07:35:43;;;;;;;9.20;3.35;;;2.50;99.90;;;;;;5046982;28;20085;-77
2022/01/09 07:38:09;;;;;;;9.52;3.45;;;2.50;99.90;;;;;;5030239;28;20026;-77
2022/01/09 07:40:34;;;;;;;9.15;3.25;;;2.60;99.90;;;;;;5030659;28;20175;-78
2022/01/09 07:43:00;;;;;;;8.43;4.10;;;2.60;99.90;;;;;;5030039;28;20033;-77
2022/01/09 07:45:27;;;;;;;8.57;3.45;;;2.60;99.90;;;;;;5030315;28;20049;-75
2022/01/09 07:47:55;;;;;;;12.52;3.35;;;2.60;99.90;;;;;;5048069;28;20040;-75
2022/01/09 07:50:22;;;;;;;8.02;3.58;;;2.60;99.90;;;;;;5029675;28;20051;-75
2022/01/09 07:52:49;;;;;;;9.55;4.40;;;2.60;99.90;;;;;;5048059;28;20454;-78
2022/01/09 07:55:14;;;;;;;19.67;6.70;;;2.60;99.90;;;;;;5035136;28;20030;-76
2022/01/09 07:57:41;;;;;;;10.13;4.05;;;2.60;99.90;;;;;;5045033;28;20022;-77
2022/01/09 08:00:09;;;;;;;12.80;4.25;;;2.60;99.90;;;;;;5041534;28;20036;-76
2022/01/09 08:02:36;;;;;;;10.88;4.40;;;2.70;99.90;;;;;;5043301;28;20022;-77
2022/01/09 08:05:02;;;;;;;9.05;4.20;;;2.70;99.90;;;;;;5047521;28;20049;-75
2022/01/09 08:07:28;;;;;;;10.70;4.20;;;2.70;99.90;;;;;;5028209;28;20768;-76
2022/01/09 08:09:53;;;;;;;8.93;4.25;;;2.80;99.90;;;;;;5024082;28;20025;-78
2022/01/09 08:12:19;;;;;;;15.55;5.60;;;2.80;99.90;;;;;;5036381;28;20030;-75
2022/01/09 08:14:45;;;;;;;12.25;4.00;;;2.80;99.90;;;;;;5034530;28;20025;-73
2022/01/09 08:17:12;;;;;;;14.57;5.55;;;2.80;99.90;;;;;;5047021;28;20029;-75
2022/01/09 08:19:38;;;;;;;13.95;5.45;;;2.90;99.90;;;;;;5029235;28;20041;-74
2022/01/09 08:22:05;;;;;;;19.30;9.30;;;2.90;99.90;;;;;;5029731;28;20039;-76
2022/01/09 08:24:36;;;;;;;17.52;5.18;;;3.00;99.90;;;;;;5029084;28;20042;-77
2022/01/09 08:27:02;;;;;;;17.73;7.30;;;3.00;99.90;;;;;;5047274;28;20029;-77
2022/01/09 08:29:28;;;;;;;12.52;5.65;;;3.10;99.90;;;;;;5029496;28;20030;-75
2022/01/09 08:31:54;;;;;;;18.75;8.50;;;3.10;99.90;;;;;;5046798;28;20068;-75
2022/01/09 08:34:26;;;;;;;10.57;5.13;;;3.20;99.90;;;;;;5028342;28;20144;-76
2022/01/09 08:36:52;;;;;;;20.52;6.43;;;3.20;99.90;;;;;;5029858;28;20033;-74
2022/01/09 08:39:18;;;;;;;24.60;4.95;;;3.30;99.90;;;;;;5047071;28;20104;-76
2022/01/09 08:41:43;;;;;;;14.52;5.50;;;3.30;99.90;;;;;;5047363;28;20030;-76
2022/01/09 08:44:09;;;;;;;12.27;4.45;;;3.40;99.90;;;;;;5047634;28;20029;-75
2022/01/09 08:46:36;;;;;;;6.40;3.60;;;3.40;99.90;;;;;;5029634;28;20061;-76
2022/01/09 08:49:04;;;;;;;10.38;4.10;;;3.60;99.90;;;;;;5029729;28;20045;-74
2022/01/09 08:51:30;;;;;;;8.02;3.28;;;3.50;99.90;;;;;;5047250;28;20856;-73
2022/01/09 08:53:57;;;;;;;7.90;3.17;;;3.60;99.90;;;;;;5028020;28;20029;-77
2022/01/09 08:56:25;;;;;;;10.48;3.10;;;3.60;99.90;;;;;;5045714;28;20089;-74
2022/01/09 08:58:51;;;;;;;9.10;2.85;;;3.70;99.90;;;;;;5046903;28;20065;-72
2022/01/09 09:01:17;;;;;;;6.15;3.28;;;3.80;99.90;;;;;;5046583;28;20077;-73
2022/01/09 09:03:44;;;;;;;5.22;2.05;;;3.90;99.90;;;;;;5029028;28;20060;-74
2022/01/09 09:06:13;;;;;;;8.75;2.25;;;4.00;99.90;;;;;;5028884;28;20065;-76
2022/01/09 09:08:40;;;;;;;5.88;1.80;;;4.00;99.90;;;;;;5046470;28;20021;-75
2022/01/09 09:11:07;;;;;;;4.68;1.55;;;4.10;99.90;;;;;;5029108;28;20089;-74
2022/01/09 09:13:33;;;;;;;8.60;1.58;;;4.20;99.90;;;;;;5029078;28;20068;-75
2022/01/09 09:15:59;;;;;;;3.22;1.17;;;4.20;99.90;;;;;;5029137;28;20049;-73
2022/01/09 09:18:24;;;;;;;8.10;2.35;;;4.30;99.90;;;;;;5045359;28;20041;-76
2022/01/09 09:20:50;;;;;;;6.70;1.92;;;4.40;99.90;;;;;;5025152;28;20073;-77
2022/01/09 09:23:16;;;;;;;3.13;1.23;;;4.40;99.90;;;;;;5026655;28;20030;-76
2022/01/09 09:25:41;;;;;;;8.35;1.15;;;4.40;99.90;;;;;;5024253;28;20064;-75
2022/01/09 09:28:08;;;;;;;3.58;1.80;;;4.50;99.90;;;;;;5024085;28;20022;-75
2022/01/09 09:30:33;;;;;;;2.65;1.17;;;4.60;99.90;;;;;;5041568;28;20077;-73
2022/01/09 09:32:59;;;;;;;3.13;1.17;;;4.60;99.90;;;;;;5026924;28;20060;-75
2022/01/09 09:35:25;;;;;;;6.53;0.90;;;4.70;99.90;;;;;;5026136;28;20025;-75
2022/01/09 09:37:50;;;;;;;13.55;1.90;;;4.60;99.90;;;;;;5026559;28;20506;-76
2022/01/09 09:40:17;;;;;;;4.78;1.65;;;4.70;99.90;;;;;;5017634;28;20033;-76
2022/01/09 09:42:43;;;;;;;12.32;1.85;;;4.80;99.90;;;;;;5020528;28;20037;-75
2022/01/09 09:45:10;;;;;;;1.70;0.93;;;4.80;99.90;;;;;;5027881;28;20033;-75
2022/01/09 09:47:38;;;;;;;10.35;1.20;;;4.80;99.90;;;;;;5025046;28;20022;-75
2022/01/09 09:50:07;;;;;;;17.48;2.75;;;4.80;99.90;;;;;;5040716;28;20581;-75
2022/01/09 09:52:35;;;;;;;3.53;2.05;;;4.80;99.90;;;;;;5024677;28;20034;-77
2022/01/09 09:55:01;;;;;;;8.05;2.15;;;4.90;99.90;;;;;;5020645;28;20061;-74
2022/01/09 09:57:27;;;;;;;7.20;1.33;;;4.90;99.90;;;;;;5019565;28;20022;-75
2022/01/09 10:00:04;;;;;;;4.75;0.98;;;5.00;99.90;;;;;;5016368;28;20041;-75
2022/01/09 10:03:01;;;;;;;12.45;1.13;;;4.90;99.90;;;;;;5027346;28;20034;-76
2022/01/09 10:05:38;;;;;;;5.22;1.88;;;5.00;99.90;;;;;;4996251;28;20046;-74
2022/01/09 10:08:16;;;;;;;8.63;2.90;;;5.00;99.90;;;;;;5006778;28;20117;-76
2022/01/09 10:10:43;;;;;;;3.83;1.83;;;5.00;99.90;;;;;;5004580;28;20121;-76
2022/01/09 10:13:08;;;;;;;25.13;2.28;;;5.00;99.90;;;;;;5004697;28;20389;-77
2022/01/09 10:15:58;;;;;;;9.07;3.42;;;5.00;99.90;;;;;;5025304;28;20053;-75
2022/01/09 10:18:39;;;;;;;7.35;2.15;;;5.00;99.90;;;;;;5019703;28;20041;-74
2022/01/09 10:21:12;;;;;;;18.70;2.92;;;5.10;99.90;;;;;;5045224;28;20097;-75
2022/01/09 10:24:04;;;;;;;16.38;2.30;;;5.10;99.90;;;;;;5027418;28;20097;-75
2022/01/09 10:26:33;;;;;;;8.45;1.95;;;5.10;99.90;;;;;;5044823;28;20041;-73
2022/01/09 10:28:59;;;;;;;20.15;5.60;;;5.20;99.90;;;;;;5045232;28;20597;-75
2022/01/09 10:31:26;;;;;;;18.83;3.22;;;5.20;99.90;;;;;;5042254;28;20026;-75
2022/01/09 10:34:06;;;;;;;11.90;2.58;;;5.20;99.90;;;;;;5042108;28;20037;-74
2022/01/09 10:36:41;;;;;;;5.15;1.67;;;5.20;99.90;;;;;;5025533;28;20381;-75
2022/01/09 10:39:13;;;;;;;5.82;2.03;;;5.20;99.90;;;;;;5023460;28;20032;-75
2022/01/09 10:41:50;;;;;;;5.82;2.08;;;5.20;99.90;;;;;;5025721;28;20037;-75
2022/01/09 10:44:19;;;;;;;16.60;2.13;;;5.30;99.90;;;;;;5023511;28;20052;-76
2022/01/09 10:47:00;;;;;;;4.97;1.25;;;5.30;99.90;;;;;;5023501;28;20049;-75
2022/01/09 10:49:36;;;;;;;13.68;1.40;;;5.30;99.90;;;;;;5027251;28;20033;-75
2022/01/09 10:52:27;;;;;;;10.98;2.58;;;5.30;99.90;;;;;;5033558;28;20054;-76
2022/01/09 10:54:56;;;;;;;1.35;0.80;;;5.40;99.90;;;;;;5033333;28;20188;-76
2022/01/09 10:57:29;;;;;;;10.10;1.98;;;5.40;99.90;;;;;;5044649;28;20021;-78
2022/01/09 11:00:09;;;;;;;7.93;2.17;;;5.40;99.90;;;;;;5026412;28;20029;-76
2022/01/09 11:02:35;;;;;;;8.30;2.42;;;5.50;99.90;;;;;;5044048;28;20026;-76
2022/01/09 11:05:01;;;;;;;4.35;2.50;;;5.40;99.90;;;;;;5026396;28;20044;-76
2022/01/09 11:07:27;;;;;;;11.38;1.92;;;5.50;99.90;;;;;;5042988;28;20045;-76
2022/01/09 11:09:54;;;;;;;8.25;2.03;;;5.50;99.90;;;;;;5026015;28;20030;-75
2022/01/09 11:12:22;;;;;;;15.70;2.55;;;5.60;99.90;;;;;;5026105;28;20030;-78
2022/01/09 11:14:51;;;;;;;16.48;1.27;;;5.50;99.90;;;;;;5044559;28;20048;-76
2022/01/09 11:17:17;;;;;;;10.85;1.25;;;5.50;99.90;;;;;;5044550;28;20032;-77
2022/01/09 11:19:43;;;;;;;3.53;1.85;;;5.50;99.90;;;;;;5022526;28;20038;-76
2022/01/09 11:22:13;;;;;;;6.30;2.50;;;5.50;99.90;;;;;;5024649;28;20036;-76
2022/01/09 11:25:10;;;;;;;13.38;1.13;;;5.60;99.90;;;;;;5022837;28;20034;-78
2022/01/09 11:28:01;;;;;;;7.55;2.25;;;5.60;99.90;;;;;;5014834;28;20033;-78
2022/01/09 11:30:33;;;;;;;10.88;2.10;;;5.60;99.90;;;;;;5021821;28;20058;-78
2022/01/09 11:33:40;;;;;;;18.52;1.63;;;5.60;99.90;;;;;;5020030;28;20036;-76
2022/01/09 11:36:15;;;;;;;5.57;1.55;;;5.60;99.90;;;;;;5018478;28;20983;-75
2022/01/09 11:38:59;;;;;;;10.27;2.25;;;5.60;99.90;;;;;;5023297;28;20033;-76
2022/01/09 11:41:31;;;;;;;16.27;1.52;;;5.60;99.90;;;;;;5035312;28;20053;-74
2022/01/09 11:44:08;;;;;;;14.02;2.38;;;5.60;99.90;;;;;;5021192;28;20038;-78
2022/01/09 11:47:10;;;;;;;8.00;1.50;;;5.60;99.90;;;;;;5022327;28;20050;-73
2022/01/09 11:49:59;;;;;;;9.50;1.85;;;5.60;99.90;;;;;;4962616;28;20091;-76
2022/01/09 11:52:27;;;;;;;4.82;1.50;;;5.70;99.90;;;;;;5016083;28;20061;-76
2022/01/09 11:54:56;;;;;;;11.43;1.63;;;5.70;99.90;;;;;;5026615;28;20080;-76
2022/01/09 11:57:46;;;;;;;9.25;2.80;;;5.80;99.90;;;;;;5026569;28;20060;-78
2022/01/09 12:00:30;;;;;;;16.35;2.53;;;5.70;99.90;;;;;;5027886;28;20026;-75
2022/01/09 12:02:57;;;;;;;10.48;2.63;;;5.70;99.90;;;;;;5026289;28;20030;-76
2022/01/09 12:05:22;;;;;;;8.63;2.10;;;5.70;99.90;;;;;;5027717;28;20109;-76
2022/01/09 12:07:48;;;;;;;28.27;2.70;;;5.70;99.90;;;;;;5021744;28;20030;-75
2022/01/09 12:10:26;;;;;;;9.25;2.35;;;5.70;99.90;;;;;;5008124;28;20041;-77
2022/01/09 12:12:52;;;;;;;15.07;2.55;;;5.70;99.90;;;;;;5023312;28;20062;-75
2022/01/09 12:15:37;;;;;;;12.75;3.13;;;5.70;99.90;;;;;;5026187;28;20022;-78
2022/01/09 12:18:04;;;;;;;6.35;1.27;;;5.70;99.90;;;;;;5026044;28;20026;-77
2022/01/09 12:20:37;;;;;;;9.65;3.20;;;5.70;99.90;;;;;;5026361;28;20049;-75
2022/01/09 12:23:05;;;;;;;7.20;1.10;;;5.80;99.90;;;;;;5027058;28;20394;-74
2022/01/09 12:25:36;;;;;;;2.83;1.40;;;5.80;99.90;;;;;;5025309;28;20517;-75
2022/01/09 12:28:24;;;;;;;24.05;2.97;;;5.90;99.90;;;;;;5027750;28;20041;-78
2022/01/09 12:30:58;;;;;;;5.88;1.60;;;5.80;99.90;;;;;;5025849;28;20040;-78
2022/01/09 12:33:32;;;;;;;;;;;5.80;99.90;;;;;;5026715;28;20058;-76
2022/01/09 12:36:02;;;;;;;14.15;2.88;;;5.80;99.90;;;;;;5026664;28;19936;-76
2022/01/09 12:38:30;;;;;;;14.98;1.80;;;5.80;99.90;;;;;;5025035;28;20034;-75
2022/01/09 12:41:01;;;;;;;9.50;3.00;;;5.80;99.90;;;;;;5021922;28;20029;-79
2022/01/09 12:43:34;;;;;;;11.43;2.15;;;5.80;99.90;;;;;;5040109;28;20129;-77
2022/01/09 12:46:09;;;;;;;9.55;1.63;;;5.80;99.90;;;;;;5006698;28;20070;-76
2022/01/09 12:48:35;;;;;;;3.55;1.23;;;5.80;99.90;;;;;;5022851;28;20430;-78
2022/01/09 12:51:30;;;;;;;15.75;2.17;;;5.80;99.90;;;;;;5007221;28;20026;-78
2022/01/09 12:53:56;;;;;;;;;;;5.80;99.90;;;;;;5007527;28;20034;-74
2022/01/09 12:56:25;;;;;;;4.80;1.23;;;5.80;99.90;;;;;;5022414;28;19913;-78
2022/01/09 12:58:50;;;;;;;5.45;1.15;;;5.80;99.90;;;;;;5031495;28;20049;-78
2022/01/09 13:01:22;;;;;;;13.45;2.78;;;5.80;99.90;;;;;;5025433;28;20029;-76